Warner, New Hampshire
Current Conditions -  °F | °C
As of 1:51 PM on Friday 21 Nov 2014 (Local Time) from KCON Reporting Station
Broken Clouds Broken Clouds  
Wind Chill: -7°   Ceiling: 5500
Heat Index: -1°   Visibility: 10mi
Dew Point: -13°   Wind: 16mph
Humidity: 40%   Direction: 310°NW
Pressure: 30.15"   Gusts: 24mph
Location:  43.28°N, 71.82°W
Report Text: KCON 211851Z AUTO 31014G21KT 10SM BKN055 M01/M13 A3015 RMK AO2 SLP214 T10111133
Loading
Personal Weather Stations






























Interactive Weather Map New forecast layout! Learn more

10-Day Weather Forecast

Advertisements
Track Severe Weather on mobile